Peter Grant

Chefscout - Wrexham
4 Dez 2027
Samstag
Verarbeitung

Persönlichkeit

Anpassungsfähigkeit (16) Ehrgeiz (7) Kontroverse (7) Loyalität (17) Druck (17) Professionalität (6) Fairness (15) Temperament (2)

Profil

Trainerstil Demokratisch
Lizenz Kontinentale B
Entschlossenheit 6
Menschenführung 10
Motivation 4
Disziplin 11
Arbeitszufriedenheit
100%
Ermüdung
0%
Rolle Chefscout
Gehalt 45.3K p/W
Vertrag 14.03.2030

Leistung

Verhalten Gut
Trainingseffektivität
40%
Spielerentwicklung
60%
Verletzungsprävention
30%
Taktische Umsetzung
25%

Letzte Ereignisse

Nahm an einer Scouting-Besprechung teil jetzt
Empfahl ein Transferziel jetzt
Empfahl ein Transferziel jetzt
Empfahl ein Transferziel jetzt
Empfahl ein Transferziel jetzt
Empfahl ein Transferziel 7T her
Empfahl ein Transferziel 7T her
Empfahl ein Transferziel 7T her

Aktuell beobachtet

150
Spieler Verein Status Fähigkeit Vertrauen Beobachtet Zuletzt beobachtet Letzte Stimme
Joel Ezra Enyimba Aktiv 85 / 92 40% 3 11.08.2027 -
Lautaro Dufur Rentistas Aktiv 91 / 104 40% 1 11.08.2027 -
Mattia Puzone Siracusa Aktiv 102 / 116 40% 1 04.08.2027 -
Owen Eames Almería Aktiv 86 / 109 40% 1 04.08.2027 -
Konstantin Tyukavin Arsenal Verhandlung 132 / 133 89% 1 01.06.2027 Befürworten
Patrick Berg Borussia Mönchengladbach Verhandlung 141 / 141 62% 1 01.06.2027 Befürworten
Mao Hosoya Manchester City Verhandlung 134 / 135 67% 1 01.06.2027 Befürworten
Pietro Reggiori Pro Patria Aktiv 87 / 106 40% 2 31.05.2027 -
Trevoh Chalobah Como Aktiv 163 / 158 40% 4 30.05.2027 -
Adrien Truffert Bournemouth Aktiv 140 / 157 40% 3 30.05.2027 -
Jay Stansfield Birmingham Aktiv 140 / 125 40% 2 30.05.2027 -
Ronald Swansea City Aktiv 118 / 123 40% 1 30.05.2027 -
Edoardo Bove Watford Aktiv 143 / 125 40% 2 28.05.2027 -
Kian Best Gijón Aktiv 96 / 113 40% 1 28.05.2027 -
Hosea Michael Remo Stars Aktiv 78 / 106 40% 1 28.05.2027 -
Adam Randell Bristol City Aktiv 125 / 122 40% 1 28.05.2027 -
Giorgi Chakvetadze Watford Aktiv 137 / 119 40% 1 28.05.2027 -
Brooke Norton-Cuffy Hull City Aktiv 148 / 127 40% 7 24.05.2027 -
Luke McNally Bristol City Aktiv 119 / 138 40% 3 24.05.2027 -
Max Conway Bolton Wanderers Aktiv 127 / 108 40% 1 24.05.2027 -
Jason Knight Bristol City Aktiv 124 / 127 40% 1 24.05.2027 -
Caleb Yirenkyi Coventry City Aktiv 144 / 149 40% 3 23.05.2027 -
Uche Jaguar Kwara United Aktiv 95 / 84 40% 2 23.05.2027 -
Harry Clarke Preston Aktiv 125 / 120 40% 4 23.05.2027 -
Louie Barry Sheffield Wednesday Aktiv 128 / 127 40% 1 23.05.2027 -
Oliver Skipp Leicester City Aktiv 125 / 141 40% 5 21.05.2027 -
Shea Charles Southampton Aktiv 125 / 147 40% 3 21.05.2027 -
Jacob Greaves Ipswich Town Aktiv 131 / 132 40% 2 19.05.2027 -
Tariq Lamptey Queens Park Rangers Aktiv 129 / 144 40% 1 18.05.2027 -
Ryan Sessegnon Fulham Aktiv 140 / 152 40% 1 18.05.2027 -
Tim Iroegbunam Hull City Aktiv 134 / 144 40% 5 17.05.2027 -
Lucas Jetten Cambuur Aktiv 101 / 120 40% 1 17.05.2027 -
Maeson King Blackpool Aktiv 111 / 118 40% 1 17.05.2027 -
Ethan Ampadu Leeds United Aktiv 142 / 155 40% 1 17.05.2027 -
Max Johnston Derby County Aktiv 130 / 137 40% 5 16.05.2027 -
Nobel Mendy Hull City Aktiv 127 / 145 40% 2 16.05.2027 -
Roger François Udinese Aktiv 144 / 134 40% 1 14.05.2027 -
Jaydee Canvot Liverpool Aktiv 138 / 135 40% 1 14.05.2027 -
Rumarn Burrell Queens Park Rangers Aktiv 127 / 124 40% 3 12.05.2027 -
Max Bird Birmingham Aktiv 138 / 142 40% 5 12.05.2027 -
Malick Fofana Sunderland Aktiv 135 / 158 40% 1 09.05.2027 -
Jack Rudoni Coventry City Aktiv 139 / 138 40% 5 08.05.2027 -
Bobby Thomas Coventry City Aktiv 141 / 128 40% 5 06.05.2027 -
Tyrell Malacia Derby County Aktiv 142 / 146 40% 4 05.05.2027 -
Finn Azaz Southampton Aktiv 134 / 130 40% 3 05.05.2027 -
Dávid Strelec Middlesbrough Aktiv 149 / 145 40% 1 05.05.2027 -
Juanlu Bournemouth Aktiv 153 / 160 40% 7 03.05.2027 -
Ethan Galbraith Swansea City Aktiv 137 / 131 40% 7 02.05.2027 -
T-Jay Parfitt Cardiff City Aktiv 96 / 101 40% 2 02.05.2027 -
Josh Davidson Cukaricki Aktiv 106 / 93 40% 1 02.05.2027 -
Jordan Beyer Burnley Aktiv 147 / 140 40% 4 29.04.2027 -
Joel McGregor Swindon Town Aktiv 97 / 104 40% 2 29.04.2027 -
Ramón Terrats Getafe Aktiv 141 / 149 40% 1 27.04.2027 -
Neco Williams Nottingham Forest Aktiv 139 / 132 40% 3 26.04.2027 -
Oumar Solet Udinese Aktiv 147 / 147 40% 1 26.04.2027 -
Loum Tchaouna Coventry City Aktiv 142 / 147 40% 1 25.04.2027 -
Enzo Barrenechea Burnley Aktiv 144 / 142 40% 2 23.04.2027 -
Álex Valle Como Aktiv 137 / 148 40% 1 23.04.2027 -
Daniel Kelly Derby County Aktiv 120 / 110 40% 2 22.04.2027 -
Sam Curtis Swindon Town Aktiv 95 / 107 40% 2 22.04.2027 -
Julio Enciso Ipswich Town Aktiv 137 / 135 40% 3 21.04.2027 -
Tomáš Rigo Stoke City Aktiv 135 / 141 40% 2 21.04.2027 -
Bosun Lawal Stoke City Aktiv 121 / 139 40% 2 21.04.2027 -
Nathan Collins Brentford Aktiv 158 / 148 40% 1 21.04.2027 -
Surprise Manthosi Polokwane City Aktiv 84 / 106 40% 1 16.04.2027 -
Aaron Hickey Brentford Aktiv 134 / 138 40% 1 14.04.2027 -
Alfie Doughty Millwall Aktiv 120 / 128 40% 3 11.04.2027 -
Welington Southampton Aktiv 142 / 118 40% 3 10.04.2027 -
Mathias Jørgensen Blackburn Rovers Aktiv 126 / 121 40% 2 09.04.2027 -
Kayne Ramsay Charlton Athletic Aktiv 118 / 135 40% 1 09.04.2027 -
Lamine Cissé Peterborough United Aktiv 120 / 118 40% 1 09.04.2027 -
Dango Ouattara Brentford Aktiv 152 / 142 40% 1 07.04.2027 -
Tshepang Moremi Orlando Pirates Aktiv 123 / 126 40% 1 07.04.2027 -
Imrân Louza Watford Aktiv 129 / 123 40% 2 05.04.2027 -
Mfundo Vilakazi Kaizer Chiefs Aktiv 109 / 121 40% 1 31.03.2027 -
Tyrese Campbell Sheffield United Aktiv 127 / 117 40% 1 31.03.2027 -
André Wolverhampton Aktiv 156 / 149 40% 1 28.03.2027 -
Abraham Paintsil Hasaacas Aktiv 103 / 96 40% 6 26.03.2027 -
Daniel Kyerewaa Reading Aktiv 103 / 124 40% 1 26.03.2027 -
Kasey McAteer Ipswich Town Aktiv 136 / 128 40% 1 23.03.2027 -
Habeeb Ogunneye Astra Aktiv 92 / 103 40% 1 19.03.2027 -
Calvin Bassey Fulham Aktiv 153 / 142 40% 2 16.03.2027 -
Toby Collyer West Bromwich Albion Aktiv 130 / 134 40% 1 15.03.2027 -
Amine Adli Bournemouth Aktiv 142 / 146 40% 2 14.03.2027 -
Alex Scott Bournemouth Aktiv 156 / 147 40% 4 13.03.2027 -
Jovon Makama Norwich City Aktiv 135 / 132 40% 2 09.03.2027 -
Anel Ahmedhodžić Burnley Aktiv 128 / 128 40% 2 09.03.2027 -
Tiago Freitas Benfica Aktiv 102 / 117 40% 1 09.03.2027 -
Zeidane Inoussa Swansea City Aktiv 135 / 114 40% 3 06.03.2027 -
Christian Krasnodar Aktiv 143 / 132 40% 1 02.03.2027 -
Isma Ruiz Córdoba Aktiv 129 / 124 40% 1 26.02.2027 -
Dara O'Shea Ipswich Town Aktiv 145 / 141 40% 1 22.02.2027 -
Jorrel Hato Chelsea Aktiv 148 / 143 40% 4 21.02.2027 -
Chemsdine Talbi Sunderland Aktiv 153 / 136 40% 2 20.02.2027 -
Brenden Aaronson Leeds United Aktiv 138 / 140 40% 1 15.02.2027 -
Petar Stanić Ludogorets Aktiv 136 / 140 40% 1 14.02.2027 -
Florentino Luís Ipswich Town Aktiv 143 / 145 40% 1 06.02.2027 -
Romaine Mundle Sunderland Aktiv 143 / 128 40% 1 06.02.2027 -
António Silva Bournemouth Aktiv 141 / 138 40% 1 31.01.2027 -
Matthew Garbett Peterborough United Aktiv 116 / 105 58% 1 06.01.2027 -
Adnan Carrasco FC Nantes Verhandlung 151 / 156 64% 1 01.01.2027 Befürworten
Adrian Dragusin CFR Cluj Aktiv 141 / 142 63% 1 01.01.2027 Befürworten
Amar Memić Juventude Verhandlung 127 / 128 62% 1 01.01.2027 Befürworten
Brandon Khela Peterborough United Aktiv 102 / 94 40% 4 31.12.2026 -
James Dornelly Peterborough United Aktiv 111 / 116 40% 2 29.12.2026 -
Mandla Mokotjo SuperSport United Aktiv 69 / 109 40% 1 25.12.2026 -
Riquelme Thompson-Jones Shrewsbury Town Aktiv 105 / 118 40% 3 23.12.2026 -
Owen Lunt Crewe Alexandra Aktiv 86 / 111 40% 1 23.12.2026 -
Christos Mouzakitis Hull City Aktiv 127 / 146 40% 3 21.12.2026 -
João Muniz Sporting CP Aktiv 111 / 117 40% 1 15.12.2026 -
Kaick FC Dallas Aktiv 97 / 120 40% 4 13.12.2026 -
El Hadji Malick Diouf Brentford Aktiv 142 / 140 40% 4 12.12.2026 -
Mohammed Wakaso Hasaacas Aktiv 106 / 107 40% 2 11.12.2026 -
Simphiwe Selepe Orlando Pirates Aktiv 108 / 100 40% 4 08.12.2026 -
Luther Ngcobo Ajax Cape Town Aktiv 98 / 98 40% 3 05.12.2026 -
Riley Owen Wycombe Wanderers Aktiv 103 / 107 40% 1 04.12.2026 -
Victor Ehibe Gazelle Garoua Aktiv 84 / 77 40% 2 03.12.2026 -
Gladson Sulemana Liberty Professionals Aktiv 98 / 86 40% 1 03.12.2026 -
Sifiso Mphela Ajax Cape Town Aktiv 97 / 82 40% 1 02.12.2026 -
Noah Sadiki Sunderland Aktiv 137 / 151 40% 4 01.12.2026 -
Emmanuel Mathias Ikorodu City Aktiv 101 / 101 40% 3 26.11.2026 -
Philippe Ndinga Philadelphia Union Aktiv 110 / 134 40% 4 26.11.2026 -
Yahaya Ibrahim Plateau United Aktiv 81 / 88 40% 1 12.11.2026 -
Mbekezeli Mbokazi Chicago Fire Aktiv 118 / 112 40% 6 05.11.2026 -
Jérémy Jacquet Liverpool Aktiv 133 / 140 40% 1 27.10.2026 -
Nico O'Reilly Manchester City Aktiv 155 / 163 40% 4 25.10.2026 -
Jack Hinshelwood Brighton Aktiv 134 / 147 40% 2 22.10.2026 -
Mandla Khune SuperSport United Aktiv 80 / 78 40% 2 22.10.2026 -
Elías Báez Atlanta United FC Aktiv 109 / 110 40% 2 07.10.2026 -
Sergio Oregel Chicago Fire Aktiv 107 / 122 40% 1 06.10.2026 -
Emmanuel Akpan Bendel Insurance Aktiv 95 / 94 40% 1 06.10.2026 -
Dylan Lawlor Cardiff City Aktiv 115 / 122 40% 2 05.10.2026 -
Godwin Oham Warri Wolves Aktiv 76 / 83 40% 1 30.09.2026 -
Onyia Henry Bendel Insurance Aktiv 85 / 74 40% 1 30.09.2026 -
Sheriff Amuda Shooting Stars Aktiv 67 / 78 40% 1 29.09.2026 -
Cemran Dansin Orlando Pirates Aktiv 99 / 127 40% 1 26.09.2026 -
Stanley Joseph Remo Stars Aktiv 83 / 87 40% 1 25.09.2026 -
Jacob Wright Norwich City Aktiv 103 / 130 40% 1 25.09.2026 -
Olaniyi Saheed Kwara United Aktiv 105 / 80 40% 1 22.09.2026 -
Frankie Westfield Philadelphia Union Aktiv 106 / 98 40% 1 21.09.2026 -
Reuell Walters Luton Town Aktiv 116 / 122 40% 1 21.09.2026 -
Pedro Soma San Diego Football Club Aktiv 92 / 105 40% 1 20.09.2026 -
Sam Gale Gillingham Aktiv 87 / 98 40% 1 17.09.2026 -
Chibueze Oputa Rangers International Aktiv 80 / 95 40% 1 16.09.2026 -
Aleksa Cvetković Vancouver Whitecaps Aktiv 114 / 110 40% 1 14.09.2026 -
Harvey Araujo Burton Albion Aktiv 89 / 95 40% 1 02.09.2026 -
Lucas Agazzi Defensor Sporting Aktiv 135 / 127 40% 1 01.09.2026 -
Jofrank Istifanus Nasarawa United Aktiv 66 / 105 40% 1 28.08.2026 -
Johnly Yfeko Exeter City Aktiv 104 / 121 55% 1 24.08.2026 -
Mateo Mendoza Godoy Cruz Aktiv 113 / 135 40% 1 24.08.2026 -